THY85C EHAM-LTFM
Flight info
| Callsign | THY85C |
|---|---|
| Flight time | 2h 49m |
| Altitude | 39000 |
| Route | EDUPO Z739 MISGO DCT DOJOH DCT DODEN DCT NEGIX DCT DINKU DCT BESNI DCT GOMIG DCT GOTAR DCT NALOX DCT BABIT DCT ESIRI DCT ETIDA T390 RILEX |
| Aircraft | B77W/H-SDE1E2E3FGHIJ2J3J4J5M1RWXY/LB1D1 |
Departure
| Time | 2026-04-17 08:41 |
|---|---|
| Airport | Amsterdam Airport Schiphol (EHAM) |
Arrival
| Time | 2026-04-17 11:30 |
|---|---|
| Airport | İstanbul Airport (LTFM) |
| Time | Latitude | Longitude | Altitude | Speed | Heading |
|---|---|---|---|---|---|
| 2026-04-17 07:49 | 52.31364 | 4.75803 | 4 ft | 0 kts | 267° |
| 2026-04-17 08:31 | 52.31364 | 4.75805 | 4 ft | 1 kts | 266° |
| 2026-04-17 08:31 | 52.31366 | 4.75833 | 4 ft | 3 kts | 261° |
| 2026-04-17 08:31 | 52.31370 | 4.75865 | 5 ft | 3 kts | 257° |
| 2026-04-17 08:31 | 52.31373 | 4.75897 | 6 ft | 3 kts | 270° |
| 2026-04-17 08:32 | 52.31372 | 4.75921 | 7 ft | 3 kts | 326° |
| 2026-04-17 08:32 | 52.31364 | 4.75927 | 6 ft | 2 kts | 347° |
| 2026-04-17 08:32 | 52.31345 | 4.75931 | 6 ft | 3 kts | 0° |
| 2026-04-17 08:32 | 52.31330 | 4.75931 | 6 ft | 1 kts | 357° |
| 2026-04-17 08:36 | 52.31347 | 4.75930 | 6 ft | 7 kts | 357° |
| 2026-04-17 08:36 | 52.31428 | 4.75961 | 4 ft | 17 kts | 46° |
| 2026-04-17 08:37 | 52.31457 | 4.76160 | 4 ft | 18 kts | 83° |
| 2026-04-17 08:37 | 52.31466 | 4.76365 | 4 ft | 18 kts | 90° |
| 2026-04-17 08:37 | 52.31469 | 4.76574 | 4 ft | 18 kts | 87° |
| 2026-04-17 08:37 | 52.31476 | 4.76782 | 4 ft | 18 kts | 87° |
| 2026-04-17 08:38 | 52.31483 | 4.76991 | 4 ft | 18 kts | 87° |
| 2026-04-17 08:38 | 52.31529 | 4.77179 | 4 ft | 18 kts | 47° |
| 2026-04-17 08:38 | 52.31601 | 4.77351 | 4 ft | 18 kts | 61° |
| 2026-04-17 08:38 | 52.31667 | 4.77529 | 3 ft | 18 kts | 56° |
| 2026-04-17 08:39 | 52.31760 | 4.77666 | 3 ft | 18 kts | 22° |
| 2026-04-17 08:39 | 52.31886 | 4.77697 | 3 ft | 18 kts | 6° |
| 2026-04-17 08:39 | 52.32008 | 4.77739 | 4 ft | 18 kts | 25° |
| 2026-04-17 08:39 | 52.32107 | 4.77870 | 4 ft | 18 kts | 54° |
| 2026-04-17 08:40 | 52.32064 | 4.78018 | 4 ft | 18 kts | 176° |
| 2026-04-17 08:40 | 52.32034 | 4.78016 | 4 ft | 0 kts | 181° |
| 2026-04-17 08:40 | 52.32009 | 4.78015 | 4 ft | 16 kts | 182° |
| 2026-04-17 08:40 | 52.31678 | 4.77975 | 4 ft | 89 kts | 183° |
| 2026-04-17 08:41 | 52.30788 | 4.77890 | 1 ft | 163 kts | 184° |
| 2026-04-17 08:41 | 52.29511 | 4.77794 | 330 ft | 192 kts | 183° |
| 2026-04-17 08:41 | 52.28167 | 4.77675 | 1218 ft | 196 kts | 184° |
| 2026-04-17 08:41 | 52.26829 | 4.77791 | 2089 ft | 202 kts | 169° |
| 2026-04-17 08:42 | 52.25482 | 4.78865 | 2532 ft | 231 kts | 141° |
| 2026-04-17 08:42 | 52.24628 | 4.81194 | 3143 ft | 255 kts | 102° |
| 2026-04-17 08:42 | 52.24669 | 4.84135 | 3868 ft | 266 kts | 86° |
| 2026-04-17 08:42 | 52.24779 | 4.87190 | 4729 ft | 273 kts | 87° |
| 2026-04-17 08:43 | 52.24941 | 4.90299 | 5753 ft | 276 kts | 87° |
| 2026-04-17 08:43 | 52.25053 | 4.93427 | 6769 ft | 277 kts | 89° |
| 2026-04-17 08:43 | 52.25095 | 4.96589 | 7703 ft | 281 kts | 91° |
| 2026-04-17 08:43 | 52.25084 | 4.99813 | 8532 ft | 288 kts | 92° |
| 2026-04-17 08:44 | 52.25036 | 5.03080 | 9382 ft | 295 kts | 94° |
| 2026-04-17 08:44 | 52.24964 | 5.06455 | 10251 ft | 301 kts | 94° |
| 2026-04-17 08:44 | 52.24875 | 5.09931 | 10864 ft | 316 kts | 95° |
| 2026-04-17 08:44 | 52.24764 | 5.13685 | 11103 ft | 344 kts | 96° |
| 2026-04-17 08:45 | 52.24258 | 5.17618 | 11314 ft | 368 kts | 114° |
| 2026-04-17 08:45 | 52.23033 | 5.21360 | 11834 ft | 380 kts | 124° |
| 2026-04-17 08:45 | 52.21629 | 5.25081 | 12758 ft | 389 kts | 124° |
| 2026-04-17 08:45 | 52.20208 | 5.28872 | 13876 ft | 395 kts | 124° |
| 2026-04-17 08:46 | 52.18802 | 5.32674 | 14880 ft | 400 kts | 124° |
| 2026-04-17 08:46 | 52.17364 | 5.36609 | 15860 ft | 406 kts | 123° |
| 2026-04-17 08:46 | 52.15918 | 5.40596 | 16814 ft | 413 kts | 123° |
| 2026-04-17 08:46 | 52.14448 | 5.44661 | 17741 ft | 420 kts | 123° |
| 2026-04-17 08:47 | 52.12953 | 5.48801 | 18634 ft | 427 kts | 123° |
| 2026-04-17 08:47 | 52.11436 | 5.52997 | 19441 ft | 434 kts | 123° |
| 2026-04-17 08:47 | 52.09895 | 5.57254 | 20255 ft | 440 kts | 123° |
| 2026-04-17 08:47 | 52.08329 | 5.61566 | 21051 ft | 446 kts | 123° |
| 2026-04-17 08:48 | 52.06724 | 5.65915 | 21839 ft | 452 kts | 125° |
| 2026-04-17 08:48 | 52.04896 | 5.70099 | 22591 ft | 456 kts | 132° |
| 2026-04-17 08:48 | 52.02837 | 5.73947 | 23330 ft | 460 kts | 135° |
| 2026-04-17 08:48 | 52.00690 | 5.77847 | 24000 ft | 467 kts | 134° |
| 2026-04-17 08:49 | 51.98536 | 5.81824 | 24609 ft | 472 kts | 134° |
| 2026-04-17 08:49 | 51.96372 | 5.85867 | 25230 ft | 477 kts | 134° |
| 2026-04-17 08:49 | 51.94185 | 5.89949 | 25835 ft | 482 kts | 133° |
| 2026-04-17 08:49 | 51.91975 | 5.94065 | 26419 ft | 487 kts | 133° |
| 2026-04-17 08:50 | 51.89739 | 5.98222 | 26989 ft | 492 kts | 133° |
| 2026-04-17 08:50 | 51.87551 | 6.02283 | 27530 ft | 496 kts | 133° |
| 2026-04-17 08:50 | 51.85271 | 6.06504 | 28086 ft | 500 kts | 133° |
| 2026-04-17 08:50 | 51.82996 | 6.10685 | 28607 ft | 505 kts | 133° |
| 2026-04-17 08:51 | 51.80661 | 6.14951 | 29093 ft | 509 kts | 133° |
| 2026-04-17 08:51 | 51.78304 | 6.19250 | 29558 ft | 513 kts | 133° |
| 2026-04-17 08:51 | 51.75929 | 6.23583 | 29983 ft | 517 kts | 133° |
| 2026-04-17 08:51 | 51.73542 | 6.27940 | 30439 ft | 519 kts | 133° |
| 2026-04-17 08:52 | 51.71150 | 6.32304 | 30935 ft | 519 kts | 133° |
| 2026-04-17 08:52 | 51.68762 | 6.36659 | 31479 ft | 518 kts | 133° |
| 2026-04-17 08:52 | 51.66381 | 6.40994 | 32015 ft | 516 kts | 133° |
| 2026-04-17 08:52 | 51.64001 | 6.45316 | 32530 ft | 516 kts | 133° |
| 2026-04-17 08:53 | 51.61620 | 6.49629 | 33019 ft | 515 kts | 133° |
| 2026-04-17 08:53 | 51.59275 | 6.53868 | 33547 ft | 513 kts | 133° |
| 2026-04-17 08:53 | 51.56902 | 6.58153 | 34054 ft | 512 kts | 133° |
| 2026-04-17 08:53 | 51.54531 | 6.62429 | 34485 ft | 512 kts | 133° |
| 2026-04-17 08:54 | 51.52164 | 6.66696 | 34864 ft | 512 kts | 133° |
| 2026-04-17 08:54 | 51.49796 | 6.70963 | 35254 ft | 512 kts | 133° |
| 2026-04-17 08:54 | 51.47424 | 6.75221 | 35633 ft | 512 kts | 133° |
| 2026-04-17 08:54 | 51.45044 | 6.79486 | 35923 ft | 514 kts | 133° |
| 2026-04-17 08:55 | 51.42688 | 6.83699 | 36276 ft | 513 kts | 138° |
| 2026-04-17 08:55 | 51.40269 | 6.87872 | 36632 ft | 512 kts | 134° |
| 2026-04-17 08:55 | 51.37812 | 6.92004 | 36964 ft | 512 kts | 137° |
| 2026-04-17 08:55 | 51.35280 | 6.96001 | 37312 ft | 511 kts | 138° |
| 2026-04-17 08:56 | 51.32714 | 6.99935 | 37705 ft | 510 kts | 138° |
| 2026-04-17 08:56 | 51.30241 | 7.03687 | 38074 ft | 509 kts | 139° |
| 2026-04-17 08:56 | 51.27675 | 7.07582 | 38404 ft | 509 kts | 138° |
| 2026-04-17 08:56 | 51.25114 | 7.11486 | 38713 ft | 509 kts | 138° |
| 2026-04-17 08:57 | 51.22557 | 7.15401 | 38996 ft | 509 kts | 138° |
| 2026-04-17 08:57 | 51.20035 | 7.19274 | 39144 ft | 512 kts | 138° |
| 2026-04-17 08:57 | 51.17464 | 7.23224 | 39204 ft | 515 kts | 138° |
| 2026-04-17 08:58 | 51.12302 | 7.31143 | 39225 ft | 513 kts | 138° |
| 2026-04-17 08:58 | 51.07189 | 7.38960 | 39226 ft | 507 kts | 138° |
| 2026-04-17 08:59 | 51.02104 | 7.46703 | 39227 ft | 506 kts | 138° |
| 2026-04-17 08:59 | 50.97061 | 7.54352 | 39225 ft | 505 kts | 138° |
| 2026-04-17 09:00 | 50.91975 | 7.62043 | 39228 ft | 505 kts | 138° |
| 2026-04-17 09:00 | 50.86876 | 7.69731 | 39237 ft | 507 kts | 138° |
| 2026-04-17 09:01 | 50.81749 | 7.77431 | 39241 ft | 509 kts | 139° |
| 2026-04-17 09:01 | 50.76622 | 7.85057 | 39243 ft | 511 kts | 139° |
| 2026-04-17 09:02 | 50.71432 | 7.92742 | 39241 ft | 512 kts | 139° |
| 2026-04-17 09:02 | 50.66312 | 8.00304 | 39239 ft | 513 kts | 139° |
| 2026-04-17 09:03 | 50.61113 | 8.08000 | 39237 ft | 513 kts | 137° |
| 2026-04-17 09:03 | 50.56429 | 8.16490 | 39233 ft | 514 kts | 129° |
| 2026-04-17 09:04 | 50.52058 | 8.25281 | 39231 ft | 513 kts | 129° |
| 2026-04-17 09:04 | 50.47627 | 8.34059 | 39235 ft | 512 kts | 130° |
| 2026-04-17 09:05 | 50.43165 | 8.42769 | 39238 ft | 512 kts | 130° |
| 2026-04-17 09:05 | 50.38700 | 8.51460 | 39238 ft | 512 kts | 130° |
| 2026-04-17 09:06 | 50.33984 | 8.59780 | 39241 ft | 510 kts | 134° |
| 2026-04-17 09:06 | 50.29149 | 8.67807 | 39236 ft | 510 kts | 135° |
| 2026-04-17 09:07 | 50.24276 | 8.75871 | 39241 ft | 510 kts | 135° |
| 2026-04-17 09:07 | 50.19413 | 8.83941 | 39234 ft | 511 kts | 134° |
| 2026-04-17 09:08 | 50.14545 | 8.92019 | 39233 ft | 511 kts | 134° |
| 2026-04-17 09:08 | 50.09687 | 9.00056 | 39235 ft | 511 kts | 135° |
| 2026-04-17 09:09 | 50.04915 | 9.07923 | 39222 ft | 511 kts | 135° |
| 2026-04-17 09:09 | 50.00028 | 9.15951 | 39231 ft | 511 kts | 134° |
| 2026-04-17 09:10 | 49.92700 | 9.27942 | 39223 ft | 511 kts | 134° |
| 2026-04-17 09:10 | 49.87806 | 9.35921 | 39225 ft | 510 kts | 135° |
| 2026-04-17 09:11 | 49.82939 | 9.43830 | 39222 ft | 510 kts | 135° |
| 2026-04-17 09:11 | 49.78041 | 9.51764 | 39216 ft | 509 kts | 135° |
| 2026-04-17 09:12 | 49.73145 | 9.59669 | 39227 ft | 509 kts | 135° |
| 2026-04-17 09:12 | 49.68243 | 9.67560 | 39232 ft | 509 kts | 135° |
| 2026-04-17 09:13 | 49.63366 | 9.75387 | 39232 ft | 509 kts | 135° |
| 2026-04-17 09:13 | 49.58447 | 9.83256 | 39238 ft | 509 kts | 135° |
| 2026-04-17 09:14 | 49.53522 | 9.91110 | 39225 ft | 509 kts | 135° |
| 2026-04-17 09:14 | 49.48599 | 9.98937 | 39237 ft | 509 kts | 135° |
| 2026-04-17 09:15 | 49.43757 | 10.06611 | 39238 ft | 508 kts | 135° |
| 2026-04-17 09:15 | 49.38868 | 10.14338 | 39237 ft | 507 kts | 135° |
| 2026-04-17 09:16 | 49.33944 | 10.22092 | 39241 ft | 507 kts | 135° |
| 2026-04-17 09:16 | 49.29019 | 10.29823 | 39250 ft | 507 kts | 135° |
| 2026-04-17 09:17 | 49.24091 | 10.37543 | 39249 ft | 507 kts | 135° |
| 2026-04-17 09:17 | 49.19097 | 10.45144 | 39250 ft | 506 kts | 136° |
| 2026-04-17 09:18 | 49.14067 | 10.52569 | 39261 ft | 506 kts | 136° |
| 2026-04-17 09:18 | 49.09001 | 10.60034 | 39258 ft | 506 kts | 136° |
| 2026-04-17 09:19 | 49.03939 | 10.67508 | 39263 ft | 507 kts | 136° |
| 2026-04-17 09:19 | 48.98880 | 10.74969 | 39254 ft | 507 kts | 136° |
| 2026-04-17 09:20 | 48.93806 | 10.82429 | 39252 ft | 507 kts | 136° |
| 2026-04-17 09:20 | 48.88763 | 10.89818 | 39258 ft | 507 kts | 136° |
| 2026-04-17 09:21 | 48.83681 | 10.97242 | 39261 ft | 507 kts | 136° |
| 2026-04-17 09:21 | 48.78673 | 11.04536 | 39260 ft | 508 kts | 136° |
| 2026-04-17 09:22 | 48.73574 | 11.11938 | 39261 ft | 507 kts | 136° |
| 2026-04-17 09:22 | 48.68513 | 11.19272 | 39267 ft | 507 kts | 136° |
| 2026-04-17 09:23 | 48.63966 | 11.27397 | 39261 ft | 507 kts | 124° |
| 2026-04-17 09:23 | 48.60395 | 11.36557 | 39272 ft | 506 kts | 116° |
| 2026-04-17 09:24 | 48.57215 | 11.46036 | 39267 ft | 507 kts | 115° |
| 2026-04-17 09:24 | 48.54016 | 11.55522 | 39260 ft | 507 kts | 116° |
| 2026-04-17 09:25 | 48.50791 | 11.64917 | 39260 ft | 508 kts | 116° |
| 2026-04-17 09:25 | 48.47521 | 11.74354 | 39258 ft | 508 kts | 116° |
| 2026-04-17 09:26 | 48.44241 | 11.83781 | 39265 ft | 507 kts | 116° |
| 2026-04-17 09:26 | 48.40962 | 11.93183 | 39263 ft | 507 kts | 116° |
| 2026-04-17 09:27 | 48.37761 | 12.02331 | 39263 ft | 507 kts | 116° |
| 2026-04-17 09:27 | 48.34469 | 12.11706 | 39269 ft | 507 kts | 116° |
| 2026-04-17 09:28 | 48.31169 | 12.21066 | 39252 ft | 507 kts | 116° |
| 2026-04-17 09:28 | 48.27859 | 12.30424 | 39254 ft | 507 kts | 116° |
| 2026-04-17 09:29 | 48.24538 | 12.39779 | 39252 ft | 508 kts | 116° |
| 2026-04-17 09:29 | 48.21234 | 12.49050 | 39254 ft | 508 kts | 116° |
| 2026-04-17 09:30 | 48.17896 | 12.58380 | 39255 ft | 508 kts | 116° |
| 2026-04-17 09:30 | 48.14553 | 12.67699 | 39259 ft | 508 kts | 116° |
| 2026-04-17 09:31 | 48.11494 | 12.77202 | 39252 ft | 507 kts | 112° |
| 2026-04-17 09:31 | 48.08639 | 12.86775 | 39262 ft | 507 kts | 112° |
| 2026-04-17 09:32 | 48.05758 | 12.96403 | 39254 ft | 508 kts | 112° |
| 2026-04-17 09:32 | 48.02889 | 13.05855 | 39259 ft | 508 kts | 112° |
| 2026-04-17 09:33 | 47.99951 | 13.15449 | 39259 ft | 509 kts | 112° |
| 2026-04-17 09:33 | 47.97019 | 13.24979 | 39250 ft | 509 kts | 112° |
| 2026-04-17 09:34 | 47.94056 | 13.34578 | 39244 ft | 510 kts | 112° |
| 2026-04-17 09:34 | 47.91082 | 13.44177 | 39245 ft | 510 kts | 112° |
| 2026-04-17 09:35 | 47.88099 | 13.53771 | 39250 ft | 510 kts | 112° |
| 2026-04-17 09:35 | 47.85127 | 13.63296 | 39267 ft | 511 kts | 112° |
| 2026-04-17 09:36 | 47.82125 | 13.72878 | 39256 ft | 511 kts | 112° |
| 2026-04-17 09:36 | 47.79114 | 13.82452 | 39251 ft | 511 kts | 112° |
| 2026-04-17 09:37 | 47.76095 | 13.92015 | 39238 ft | 510 kts | 112° |
| 2026-04-17 09:37 | 47.73125 | 14.01386 | 39271 ft | 510 kts | 112° |
| 2026-04-17 09:38 | 47.70114 | 14.10857 | 39244 ft | 511 kts | 112° |
| 2026-04-17 09:38 | 47.67075 | 14.20375 | 39246 ft | 510 kts | 113° |
| 2026-04-17 09:39 | 47.64029 | 14.29876 | 39244 ft | 510 kts | 113° |
| 2026-04-17 09:39 | 47.60979 | 14.39362 | 39261 ft | 511 kts | 113° |
| 2026-04-17 09:40 | 47.57912 | 14.48863 | 39249 ft | 511 kts | 113° |
| 2026-04-17 09:40 | 47.54860 | 14.58279 | 39252 ft | 510 kts | 113° |
| 2026-04-17 09:41 | 47.51786 | 14.67730 | 39248 ft | 510 kts | 113° |
| 2026-04-17 09:41 | 47.48703 | 14.77175 | 39257 ft | 510 kts | 113° |
| 2026-04-17 09:42 | 47.45618 | 14.86590 | 39237 ft | 508 kts | 113° |
| 2026-04-17 09:42 | 47.42551 | 14.95916 | 39239 ft | 508 kts | 113° |
| 2026-04-17 09:43 | 47.39508 | 15.05137 | 39240 ft | 508 kts | 113° |
| 2026-04-17 09:43 | 47.36408 | 15.14497 | 39252 ft | 508 kts | 113° |
| 2026-04-17 09:44 | 47.33297 | 15.23854 | 39244 ft | 508 kts | 114° |
| 2026-04-17 09:44 | 47.30178 | 15.33203 | 39229 ft | 508 kts | 113° |
| 2026-04-17 09:45 | 47.27076 | 15.42463 | 39228 ft | 508 kts | 114° |
| 2026-04-17 09:45 | 47.23937 | 15.51802 | 39239 ft | 510 kts | 114° |
| 2026-04-17 09:46 | 47.20784 | 15.61149 | 39224 ft | 511 kts | 114° |
| 2026-04-17 09:46 | 47.17615 | 15.70515 | 39222 ft | 512 kts | 114° |
| 2026-04-17 09:47 | 47.14455 | 15.79815 | 39213 ft | 513 kts | 114° |
| 2026-04-17 09:47 | 47.11259 | 15.89187 | 39199 ft | 514 kts | 114° |
| 2026-04-17 09:48 | 47.08053 | 15.98553 | 39210 ft | 513 kts | 114° |
| 2026-04-17 09:48 | 47.04895 | 16.07744 | 39209 ft | 513 kts | 114° |
| 2026-04-17 09:49 | 47.01702 | 16.17010 | 39203 ft | 512 kts | 114° |
| 2026-04-17 09:49 | 46.98849 | 16.26497 | 39209 ft | 508 kts | 105° |
| 2026-04-17 09:50 | 46.96784 | 16.36365 | 39208 ft | 506 kts | 103° |
| 2026-04-17 09:50 | 46.94741 | 16.46230 | 39207 ft | 507 kts | 104° |
| 2026-04-17 09:51 | 46.92650 | 16.56008 | 39213 ft | 507 kts | 104° |
| 2026-04-17 09:51 | 46.90517 | 16.65845 | 39205 ft | 508 kts | 105° |
| 2026-04-17 09:52 | 46.88381 | 16.75683 | 39201 ft | 508 kts | 105° |
| 2026-04-17 09:52 | 46.85652 | 16.85243 | 39206 ft | 512 kts | 116° |
| 2026-04-17 09:53 | 46.81923 | 16.94126 | 39218 ft | 514 kts | 121° |
| 2026-04-17 09:53 | 46.78157 | 17.02691 | 39215 ft | 514 kts | 121° |
| 2026-04-17 09:54 | 46.74311 | 17.11491 | 39206 ft | 515 kts | 121° |
| 2026-04-17 09:54 | 46.70487 | 17.20301 | 39200 ft | 514 kts | 121° |
| 2026-04-17 09:55 | 46.66665 | 17.29103 | 39218 ft | 514 kts | 121° |
| 2026-04-17 09:55 | 46.62867 | 17.37822 | 39210 ft | 514 kts | 121° |
| 2026-04-17 09:56 | 46.59032 | 17.46589 | 39198 ft | 514 kts | 121° |
| 2026-04-17 09:56 | 46.55189 | 17.55345 | 39198 ft | 513 kts | 121° |
| 2026-04-17 09:57 | 46.51342 | 17.64083 | 39199 ft | 513 kts | 121° |
| 2026-04-17 09:57 | 46.47517 | 17.72744 | 39191 ft | 513 kts | 122° |
| 2026-04-17 09:58 | 46.43658 | 17.81455 | 39186 ft | 513 kts | 122° |
| 2026-04-17 09:58 | 46.39795 | 17.90147 | 39186 ft | 513 kts | 122° |
| 2026-04-17 09:59 | 46.35929 | 17.98821 | 39172 ft | 512 kts | 122° |
| 2026-04-17 09:59 | 46.32150 | 18.07272 | 39177 ft | 511 kts | 122° |
| 2026-04-17 10:00 | 46.28279 | 18.15902 | 39177 ft | 511 kts | 122° |
| 2026-04-17 10:00 | 46.24407 | 18.24507 | 39185 ft | 511 kts | 122° |
| 2026-04-17 10:01 | 46.20526 | 18.33107 | 39192 ft | 511 kts | 122° |
| 2026-04-17 10:01 | 46.16634 | 18.41705 | 39174 ft | 512 kts | 122° |
| 2026-04-17 10:02 | 46.12761 | 18.50233 | 39188 ft | 512 kts | 122° |
| 2026-04-17 10:02 | 46.08857 | 18.58804 | 39193 ft | 512 kts | 122° |
| 2026-04-17 10:03 | 46.04939 | 18.67379 | 39170 ft | 512 kts | 122° |
| 2026-04-17 10:03 | 46.01017 | 18.75934 | 39176 ft | 512 kts | 122° |
| 2026-04-17 10:04 | 45.97108 | 18.84435 | 39174 ft | 512 kts | 123° |
| 2026-04-17 10:04 | 45.93170 | 18.92865 | 39174 ft | 511 kts | 126° |
| 2026-04-17 10:05 | 45.88686 | 19.00577 | 39176 ft | 511 kts | 131° |
| 2026-04-17 10:05 | 45.83971 | 19.08204 | 39173 ft | 511 kts | 131° |
| 2026-04-17 10:06 | 45.79261 | 19.15834 | 39166 ft | 511 kts | 131° |
| 2026-04-17 10:06 | 45.74601 | 19.23428 | 39166 ft | 511 kts | 131° |
| 2026-04-17 10:07 | 45.69919 | 19.31064 | 39166 ft | 510 kts | 131° |
| 2026-04-17 10:07 | 45.65236 | 19.38682 | 39164 ft | 510 kts | 131° |
| 2026-04-17 10:08 | 45.60549 | 19.46282 | 39164 ft | 509 kts | 131° |
| 2026-04-17 10:08 | 45.55892 | 19.53809 | 39162 ft | 509 kts | 131° |
| 2026-04-17 10:09 | 45.51199 | 19.61374 | 39160 ft | 509 kts | 131° |
| 2026-04-17 10:09 | 45.46502 | 19.68924 | 39162 ft | 509 kts | 131° |
| 2026-04-17 10:10 | 45.41801 | 19.76461 | 39161 ft | 509 kts | 131° |
| 2026-04-17 10:11 | 45.34783 | 19.87675 | 39157 ft | 508 kts | 131° |
| 2026-04-17 10:11 | 45.30079 | 19.95166 | 39148 ft | 508 kts | 132° |
| 2026-04-17 10:12 | 45.25444 | 20.02527 | 39145 ft | 507 kts | 132° |
| 2026-04-17 10:12 | 45.20738 | 20.09981 | 39154 ft | 507 kts | 132° |
| 2026-04-17 10:13 | 45.16035 | 20.17410 | 39144 ft | 506 kts | 132° |
| 2026-04-17 10:13 | 45.11366 | 20.24766 | 39132 ft | 505 kts | 132° |
| 2026-04-17 10:14 | 45.07739 | 20.30464 | 39137 ft | 504 kts | 132° |
| 2026-04-17 10:18 | 45.04208 | 20.36018 | 39143 ft | 498 kts | 132° |
| 2026-04-17 10:18 | 44.99538 | 20.43328 | 39172 ft | 508 kts | 132° |
| 2026-04-17 10:19 | 44.94771 | 20.50759 | 39159 ft | 512 kts | 133° |
| 2026-04-17 10:19 | 44.89978 | 20.58216 | 39158 ft | 513 kts | 133° |
| 2026-04-17 10:20 | 44.85219 | 20.65604 | 39144 ft | 512 kts | 133° |
| 2026-04-17 10:20 | 44.80443 | 20.72999 | 39131 ft | 509 kts | 133° |
| 2026-04-17 10:21 | 44.75690 | 20.80340 | 39121 ft | 506 kts | 133° |
| 2026-04-17 10:21 | 44.70954 | 20.87635 | 39119 ft | 504 kts | 133° |
| 2026-04-17 10:22 | 44.66269 | 20.94833 | 39130 ft | 501 kts | 133° |
| 2026-04-17 10:22 | 44.61643 | 21.01919 | 39124 ft | 500 kts | 133° |
| 2026-04-17 10:23 | 44.56942 | 21.09103 | 39117 ft | 499 kts | 133° |
| 2026-04-17 10:23 | 44.52269 | 21.16294 | 39129 ft | 499 kts | 130° |
| 2026-04-17 10:24 | 44.48298 | 21.24264 | 39131 ft | 500 kts | 122° |
| 2026-04-17 10:24 | 44.44631 | 21.32466 | 39123 ft | 501 kts | 122° |
| 2026-04-17 10:25 | 44.40904 | 21.40719 | 39121 ft | 502 kts | 123° |
| 2026-04-17 10:25 | 44.37137 | 21.48944 | 39127 ft | 503 kts | 123° |
| 2026-04-17 10:26 | 44.33365 | 21.57171 | 39121 ft | 503 kts | 123° |
| 2026-04-17 10:26 | 44.29584 | 21.65394 | 39122 ft | 503 kts | 123° |
| 2026-04-17 10:27 | 44.25813 | 21.73537 | 39113 ft | 503 kts | 123° |
| 2026-04-17 10:27 | 44.22013 | 21.81705 | 39107 ft | 501 kts | 124° |
| 2026-04-17 10:28 | 44.18218 | 21.89838 | 39108 ft | 500 kts | 124° |
| 2026-04-17 10:28 | 44.14419 | 21.97955 | 39105 ft | 499 kts | 124° |
| 2026-04-17 10:29 | 44.10688 | 22.05908 | 39104 ft | 498 kts | 124° |
| 2026-04-17 10:29 | 44.06924 | 22.13910 | 39103 ft | 497 kts | 124° |
| 2026-04-17 10:30 | 44.03138 | 22.21936 | 39092 ft | 496 kts | 124° |
| 2026-04-17 10:30 | 43.99380 | 22.29881 | 39092 ft | 496 kts | 124° |
| 2026-04-17 10:31 | 43.95568 | 22.37918 | 39094 ft | 496 kts | 124° |
| 2026-04-17 10:31 | 43.91794 | 22.45852 | 39089 ft | 496 kts | 124° |
| 2026-04-17 10:32 | 43.87990 | 22.53830 | 39086 ft | 496 kts | 124° |
| 2026-04-17 10:32 | 43.84182 | 22.61791 | 39093 ft | 495 kts | 124° |
| 2026-04-17 10:33 | 43.80375 | 22.69727 | 39084 ft | 494 kts | 124° |
| 2026-04-17 10:33 | 43.76571 | 22.77640 | 39093 ft | 493 kts | 124° |
| 2026-04-17 10:34 | 43.72796 | 22.85473 | 39086 ft | 492 kts | 124° |
| 2026-04-17 10:34 | 43.68991 | 22.93342 | 39088 ft | 492 kts | 124° |
| 2026-04-17 10:35 | 43.65251 | 23.01056 | 39095 ft | 491 kts | 124° |
| 2026-04-17 10:35 | 43.61450 | 23.08879 | 39090 ft | 490 kts | 124° |
| 2026-04-17 10:36 | 43.57646 | 23.16684 | 39095 ft | 490 kts | 124° |
| 2026-04-17 10:36 | 43.53863 | 23.24427 | 39088 ft | 490 kts | 124° |
| 2026-04-17 10:37 | 43.50057 | 23.32196 | 39088 ft | 489 kts | 124° |
| 2026-04-17 10:37 | 43.46247 | 23.39951 | 39088 ft | 489 kts | 124° |
| 2026-04-17 10:38 | 43.43079 | 23.46386 | 39094 ft | 489 kts | 124° |
| 2026-04-17 10:38 | 43.38643 | 23.55372 | 39088 ft | 488 kts | 124° |
| 2026-04-17 10:39 | 43.34827 | 23.63081 | 39088 ft | 488 kts | 124° |
| 2026-04-17 10:39 | 43.31651 | 23.69480 | 39087 ft | 488 kts | 124° |
| 2026-04-17 10:40 | 43.27828 | 23.77165 | 39093 ft | 487 kts | 124° |
| 2026-04-17 10:40 | 43.24004 | 23.84833 | 39087 ft | 487 kts | 124° |
| 2026-04-17 10:41 | 43.20173 | 23.92494 | 39078 ft | 487 kts | 125° |
| 2026-04-17 10:41 | 43.16380 | 24.00061 | 39085 ft | 486 kts | 125° |
| 2026-04-17 10:42 | 43.12592 | 24.07596 | 39081 ft | 486 kts | 125° |
| 2026-04-17 10:42 | 43.08758 | 24.15206 | 39083 ft | 486 kts | 125° |
| 2026-04-17 10:43 | 43.04917 | 24.22809 | 39083 ft | 486 kts | 125° |
| 2026-04-17 10:43 | 43.01071 | 24.30402 | 39077 ft | 485 kts | 126° |
| 2026-04-17 10:44 | 42.97261 | 24.37902 | 39078 ft | 485 kts | 126° |
| 2026-04-17 10:44 | 42.93404 | 24.45475 | 39071 ft | 486 kts | 126° |
| 2026-04-17 10:45 | 42.89546 | 24.53033 | 39070 ft | 486 kts | 126° |
| 2026-04-17 10:45 | 42.85686 | 24.60583 | 39075 ft | 485 kts | 125° |
| 2026-04-17 10:46 | 42.82290 | 24.68457 | 39075 ft | 485 kts | 119° |
| 2026-04-17 10:46 | 42.79128 | 24.76583 | 39071 ft | 486 kts | 118° |
| 2026-04-17 10:47 | 42.75955 | 24.84699 | 39065 ft | 485 kts | 119° |
| 2026-04-17 10:47 | 42.72757 | 24.92772 | 39060 ft | 485 kts | 119° |
| 2026-04-17 10:48 | 42.69609 | 25.00656 | 39063 ft | 485 kts | 119° |
| 2026-04-17 10:48 | 42.66386 | 25.08702 | 39057 ft | 485 kts | 120° |
| 2026-04-17 10:49 | 42.63156 | 25.16744 | 39045 ft | 485 kts | 120° |
| 2026-04-17 10:49 | 42.59924 | 25.24776 | 39047 ft | 485 kts | 120° |
| 2026-04-17 10:50 | 42.56701 | 25.32765 | 38775 ft | 479 kts | 120° |
| 2026-04-17 10:50 | 42.55129 | 25.36653 | 38221 ft | 474 kts | 120° |
| 2026-04-17 10:50 | 42.53548 | 25.40557 | 37656 ft | 470 kts | 120° |
| 2026-04-17 10:50 | 42.51981 | 25.44424 | 37122 ft | 466 kts | 120° |
| 2026-04-17 10:51 | 42.50421 | 25.48266 | 36588 ft | 463 kts | 120° |
| 2026-04-17 10:51 | 42.48873 | 25.52073 | 36080 ft | 460 kts | 120° |
| 2026-04-17 10:51 | 42.47335 | 25.55850 | 35586 ft | 456 kts | 120° |
| 2026-04-17 10:51 | 42.45808 | 25.59595 | 35117 ft | 453 kts | 121° |
| 2026-04-17 10:52 | 42.44287 | 25.63322 | 34646 ft | 450 kts | 121° |
| 2026-04-17 10:52 | 42.42798 | 25.66966 | 34162 ft | 447 kts | 121° |
| 2026-04-17 10:52 | 42.41296 | 25.70636 | 33683 ft | 444 kts | 121° |
| 2026-04-17 10:52 | 42.39803 | 25.74280 | 33192 ft | 441 kts | 121° |
| 2026-04-17 10:53 | 42.38323 | 25.77886 | 32700 ft | 437 kts | 121° |
| 2026-04-17 10:53 | 42.36852 | 25.81468 | 32264 ft | 433 kts | 121° |
| 2026-04-17 10:53 | 42.35393 | 25.85014 | 31821 ft | 430 kts | 121° |
| 2026-04-17 10:53 | 42.33947 | 25.88527 | 31369 ft | 427 kts | 121° |
| 2026-04-17 10:54 | 42.32506 | 25.92021 | 30906 ft | 424 kts | 121° |
| 2026-04-17 10:54 | 42.31072 | 25.95492 | 30467 ft | 421 kts | 121° |
| 2026-04-17 10:54 | 42.29668 | 25.98888 | 30041 ft | 418 kts | 121° |
| 2026-04-17 10:54 | 42.28299 | 26.02195 | 29568 ft | 416 kts | 121° |
| 2026-04-17 10:55 | 42.26892 | 26.05591 | 29104 ft | 412 kts | 121° |
| 2026-04-17 10:55 | 42.25498 | 26.08955 | 28638 ft | 409 kts | 121° |
| 2026-04-17 10:55 | 42.24115 | 26.12290 | 28213 ft | 406 kts | 121° |
| 2026-04-17 10:55 | 42.22738 | 26.15606 | 27772 ft | 403 kts | 121° |
| 2026-04-17 10:56 | 42.21373 | 26.18890 | 27330 ft | 400 kts | 120° |
| 2026-04-17 10:56 | 42.20032 | 26.22114 | 26871 ft | 399 kts | 121° |
| 2026-04-17 10:56 | 42.18676 | 26.25367 | 26403 ft | 398 kts | 121° |
| 2026-04-17 10:56 | 42.17325 | 26.28602 | 26039 ft | 394 kts | 121° |
| 2026-04-17 10:57 | 42.15983 | 26.31811 | 25621 ft | 392 kts | 121° |
| 2026-04-17 10:57 | 42.14647 | 26.35005 | 25221 ft | 390 kts | 121° |
| 2026-04-17 10:57 | 42.13309 | 26.38200 | 25094 ft | 395 kts | 121° |
| 2026-04-17 10:57 | 42.11955 | 26.41425 | 25057 ft | 395 kts | 120° |
| 2026-04-17 10:58 | 42.10607 | 26.44634 | 24716 ft | 394 kts | 120° |
| 2026-04-17 10:58 | 42.09263 | 26.47832 | 24297 ft | 392 kts | 121° |
| 2026-04-17 10:58 | 42.07927 | 26.51007 | 24003 ft | 386 kts | 120° |
| 2026-04-17 10:58 | 42.06631 | 26.54087 | 23728 ft | 381 kts | 120° |
| 2026-04-17 10:59 | 42.05331 | 26.57170 | 23338 ft | 377 kts | 120° |
| 2026-04-17 10:59 | 42.04037 | 26.60234 | 22873 ft | 376 kts | 120° |
| 2026-04-17 10:59 | 42.02749 | 26.63282 | 22416 ft | 374 kts | 120° |
| 2026-04-17 10:59 | 42.01468 | 26.66309 | 22057 ft | 370 kts | 120° |
| 2026-04-17 11:00 | 42.00201 | 26.69298 | 21707 ft | 365 kts | 120° |
| 2026-04-17 11:00 | 41.98956 | 26.72238 | 21311 ft | 363 kts | 119° |
| 2026-04-17 11:00 | 41.97708 | 26.75181 | 20890 ft | 361 kts | 120° |
| 2026-04-17 11:00 | 41.96358 | 26.78001 | 20519 ft | 357 kts | 127° |
| 2026-04-17 11:01 | 41.94850 | 26.80572 | 20157 ft | 353 kts | 128° |
| 2026-04-17 11:01 | 41.93301 | 26.83132 | 20050 ft | 356 kts | 129° |
| 2026-04-17 11:01 | 41.91729 | 26.85718 | 20032 ft | 358 kts | 128° |
| 2026-04-17 11:01 | 41.90184 | 26.88334 | 20026 ft | 356 kts | 127° |
| 2026-04-17 11:02 | 41.88660 | 26.90939 | 20018 ft | 353 kts | 127° |
| 2026-04-17 11:02 | 41.87107 | 26.93578 | 20052 ft | 373 kts | 128° |
| 2026-04-17 11:02 | 41.85432 | 26.96404 | 20052 ft | 401 kts | 128° |
| 2026-04-17 11:02 | 41.83642 | 26.99399 | 20041 ft | 420 kts | 128° |
| 2026-04-17 11:03 | 41.81862 | 27.02360 | 20017 ft | 422 kts | 129° |
| 2026-04-17 11:03 | 41.80037 | 27.05383 | 20020 ft | 423 kts | 129° |
| 2026-04-17 11:03 | 41.78187 | 27.08439 | 20014 ft | 423 kts | 129° |
| 2026-04-17 11:03 | 41.76335 | 27.11496 | 20016 ft | 422 kts | 129° |
| 2026-04-17 11:04 | 41.74480 | 27.14551 | 20017 ft | 422 kts | 129° |
| 2026-04-17 11:04 | 41.72627 | 27.17602 | 20009 ft | 422 kts | 129° |
| 2026-04-17 11:04 | 41.70773 | 27.20651 | 20006 ft | 422 kts | 129° |
| 2026-04-17 11:04 | 41.68922 | 27.23693 | 20007 ft | 422 kts | 129° |
| 2026-04-17 11:05 | 41.67063 | 27.26744 | 20005 ft | 423 kts | 129° |
| 2026-04-17 11:05 | 41.65206 | 27.29790 | 20005 ft | 423 kts | 129° |
| 2026-04-17 11:05 | 41.63373 | 27.32794 | 20002 ft | 423 kts | 129° |
| 2026-04-17 11:05 | 41.61512 | 27.35839 | 20002 ft | 423 kts | 129° |
| 2026-04-17 11:06 | 41.59648 | 27.38887 | 19998 ft | 423 kts | 129° |
| 2026-04-17 11:06 | 41.57784 | 27.41933 | 19990 ft | 424 kts | 130° |
| 2026-04-17 11:06 | 41.55915 | 27.44984 | 19992 ft | 424 kts | 130° |
| 2026-04-17 11:06 | 41.54072 | 27.47990 | 19905 ft | 407 kts | 130° |
| 2026-04-17 11:07 | 41.52336 | 27.50822 | 19663 ft | 382 kts | 130° |
| 2026-04-17 11:07 | 41.50704 | 27.53484 | 19312 ft | 362 kts | 131° |
| 2026-04-17 11:07 | 41.49158 | 27.56003 | 18769 ft | 351 kts | 131° |
| 2026-04-17 11:07 | 41.47624 | 27.58494 | 18111 ft | 344 kts | 131° |
| 2026-04-17 11:08 | 41.46106 | 27.60953 | 17320 ft | 341 kts | 130° |
| 2026-04-17 11:08 | 41.44610 | 27.63374 | 16644 ft | 336 kts | 130° |
| 2026-04-17 11:08 | 41.43138 | 27.65756 | 15977 ft | 330 kts | 130° |
| 2026-04-17 11:08 | 41.41689 | 27.68100 | 15330 ft | 325 kts | 129° |
| 2026-04-17 11:09 | 41.40260 | 27.70410 | 14678 ft | 320 kts | 129° |
| 2026-04-17 11:09 | 41.38852 | 27.72684 | 14035 ft | 316 kts | 128° |
| 2026-04-17 11:09 | 41.37485 | 27.74891 | 13390 ft | 311 kts | 128° |
| 2026-04-17 11:10 | 41.34753 | 27.79299 | 11983 ft | 304 kts | 127° |
| 2026-04-17 11:10 | 41.33415 | 27.81454 | 11329 ft | 300 kts | 126° |
| 2026-04-17 11:10 | 41.32093 | 27.83579 | 10747 ft | 295 kts | 126° |
| 2026-04-17 11:10 | 41.30795 | 27.85670 | 10080 ft | 293 kts | 126° |
| 2026-04-17 11:11 | 41.29497 | 27.87759 | 9378 ft | 291 kts | 125° |
| 2026-04-17 11:11 | 41.28215 | 27.89820 | 8708 ft | 288 kts | 125° |
| 2026-04-17 11:11 | 41.26972 | 27.91816 | 8120 ft | 278 kts | 125° |
| 2026-04-17 11:11 | 41.25783 | 27.93717 | 7774 ft | 257 kts | 126° |
| 2026-04-17 11:12 | 41.24674 | 27.95491 | 7376 ft | 243 kts | 124° |
| 2026-04-17 11:12 | 41.23620 | 27.97176 | 6961 ft | 232 kts | 124° |
| 2026-04-17 11:12 | 41.22598 | 27.98819 | 6322 ft | 231 kts | 124° |
| 2026-04-17 11:12 | 41.21619 | 28.00389 | 5771 ft | 227 kts | 124° |
| 2026-04-17 11:13 | 41.20619 | 28.01993 | 5245 ft | 223 kts | 124° |
| 2026-04-17 11:13 | 41.19634 | 28.03573 | 5079 ft | 224 kts | 124° |
| 2026-04-17 11:13 | 41.18640 | 28.05167 | 4993 ft | 227 kts | 124° |
| 2026-04-17 11:13 | 41.17630 | 28.06781 | 4998 ft | 228 kts | 123° |
| 2026-04-17 11:14 | 41.16621 | 28.08396 | 4973 ft | 225 kts | 123° |
| 2026-04-17 11:14 | 41.15640 | 28.09957 | 4951 ft | 219 kts | 124° |
| 2026-04-17 11:14 | 41.14656 | 28.11531 | 4982 ft | 224 kts | 123° |
| 2026-04-17 11:14 | 41.13647 | 28.13146 | 4990 ft | 230 kts | 124° |
| 2026-04-17 11:15 | 41.12625 | 28.14777 | 4973 ft | 230 kts | 125° |
| 2026-04-17 11:15 | 41.11605 | 28.16398 | 4980 ft | 228 kts | 124° |
| 2026-04-17 11:15 | 41.10598 | 28.18001 | 4969 ft | 225 kts | 124° |
| 2026-04-17 11:15 | 41.09606 | 28.19575 | 4977 ft | 221 kts | 123° |
| 2026-04-17 11:16 | 41.08625 | 28.21136 | 4968 ft | 220 kts | 123° |
| 2026-04-17 11:16 | 41.07657 | 28.22678 | 4970 ft | 221 kts | 124° |
| 2026-04-17 11:16 | 41.06671 | 28.24246 | 4969 ft | 222 kts | 124° |
| 2026-04-17 11:16 | 41.05679 | 28.25821 | 4975 ft | 223 kts | 124° |
| 2026-04-17 11:17 | 41.04692 | 28.27386 | 4965 ft | 218 kts | 124° |
| 2026-04-17 11:17 | 41.03729 | 28.28912 | 4945 ft | 216 kts | 125° |
| 2026-04-17 11:17 | 41.02773 | 28.30427 | 4967 ft | 212 kts | 123° |
| 2026-04-17 11:17 | 41.01836 | 28.31910 | 4946 ft | 208 kts | 123° |
| 2026-04-17 11:18 | 41.00914 | 28.33373 | 4971 ft | 209 kts | 124° |
| 2026-04-17 11:18 | 40.99974 | 28.34864 | 4978 ft | 213 kts | 123° |
| 2026-04-17 11:18 | 40.99032 | 28.36358 | 4975 ft | 216 kts | 124° |
| 2026-04-17 11:18 | 40.98075 | 28.37893 | 4979 ft | 213 kts | 120° |
| 2026-04-17 11:19 | 40.97591 | 28.39650 | 4981 ft | 200 kts | 91° |
| 2026-04-17 11:19 | 40.97576 | 28.41463 | 4979 ft | 197 kts | 87° |
| 2026-04-17 11:19 | 40.97580 | 28.43268 | 4958 ft | 195 kts | 88° |
| 2026-04-17 11:19 | 40.97583 | 28.45013 | 4952 ft | 183 kts | 88° |
| 2026-04-17 11:20 | 40.97587 | 28.46662 | 4988 ft | 177 kts | 87° |
| 2026-04-17 11:20 | 40.97592 | 28.48297 | 4970 ft | 180 kts | 87° |
| 2026-04-17 11:20 | 40.97594 | 28.49890 | 4963 ft | 171 kts | 87° |
| 2026-04-17 11:20 | 40.97598 | 28.51467 | 4971 ft | 176 kts | 87° |
| 2026-04-17 11:21 | 40.97601 | 28.53075 | 4961 ft | 172 kts | 87° |
| 2026-04-17 11:21 | 40.97631 | 28.54646 | 4956 ft | 167 kts | 78° |
| 2026-04-17 11:21 | 40.98015 | 28.56069 | 4981 ft | 166 kts | 60° |
| 2026-04-17 11:21 | 40.98716 | 28.57277 | 4983 ft | 167 kts | 51° |
| 2026-04-17 11:22 | 40.99454 | 28.58473 | 4983 ft | 167 kts | 54° |
| 2026-04-17 11:22 | 41.00167 | 28.59715 | 4982 ft | 170 kts | 54° |
| 2026-04-17 11:22 | 41.00874 | 28.60962 | 4958 ft | 168 kts | 54° |
| 2026-04-17 11:22 | 41.01565 | 28.62162 | 4958 ft | 164 kts | 55° |
| 2026-04-17 11:23 | 41.02267 | 28.63351 | 4979 ft | 166 kts | 54° |
| 2026-04-17 11:23 | 41.02978 | 28.64579 | 4981 ft | 171 kts | 54° |
| 2026-04-17 11:23 | 41.03694 | 28.65849 | 4988 ft | 169 kts | 55° |
| 2026-04-17 11:23 | 41.04379 | 28.67046 | 4991 ft | 155 kts | 55° |
| 2026-04-17 11:24 | 41.05029 | 28.68178 | 4967 ft | 155 kts | 54° |
| 2026-04-17 11:24 | 41.05692 | 28.69338 | 4904 ft | 162 kts | 53° |
| 2026-04-17 11:24 | 41.06395 | 28.70518 | 4485 ft | 169 kts | 52° |
| 2026-04-17 11:24 | 41.07153 | 28.71686 | 4217 ft | 162 kts | 50° |
| 2026-04-17 11:25 | 41.07953 | 28.72715 | 3861 ft | 162 kts | 33° |
| 2026-04-17 11:25 | 41.09091 | 28.72918 | 3376 ft | 176 kts | 352° |
| 2026-04-17 11:25 | 41.10204 | 28.72592 | 3336 ft | 150 kts | 4° |
| 2026-04-17 11:25 | 41.11241 | 28.72758 | 2979 ft | 154 kts | 25° |
| 2026-04-17 11:26 | 41.12201 | 28.73327 | 2754 ft | 145 kts | 34° |
| 2026-04-17 11:26 | 41.13144 | 28.73615 | 2762 ft | 143 kts | 6° |
| 2026-04-17 11:26 | 41.14186 | 28.73357 | 2832 ft | 159 kts | 0° |
| 2026-04-17 11:26 | 41.15284 | 28.73106 | 2585 ft | 156 kts | 356° |
| 2026-04-17 11:27 | 41.16290 | 28.72984 | 2366 ft | 138 kts | 4° |
| 2026-04-17 11:27 | 41.17179 | 28.72970 | 2215 ft | 123 kts | 5° |
| 2026-04-17 11:27 | 41.18066 | 28.72957 | 2027 ft | 129 kts | 5° |
| 2026-04-17 11:27 | 41.18959 | 28.72941 | 1850 ft | 127 kts | 5° |
| 2026-04-17 11:28 | 41.19827 | 28.72922 | 1689 ft | 124 kts | 4° |
| 2026-04-17 11:28 | 41.20689 | 28.72902 | 1512 ft | 123 kts | 4° |
| 2026-04-17 11:28 | 41.21547 | 28.72884 | 1330 ft | 122 kts | 3° |
| 2026-04-17 11:28 | 41.22382 | 28.72863 | 1145 ft | 118 kts | 4° |
| 2026-04-17 11:29 | 41.23190 | 28.72847 | 985 ft | 119 kts | 3° |
| 2026-04-17 11:29 | 41.24028 | 28.72825 | 817 ft | 121 kts | 4° |
| 2026-04-17 11:29 | 41.24872 | 28.72800 | 652 ft | 122 kts | 1° |
| 2026-04-17 11:29 | 41.25731 | 28.72778 | 471 ft | 125 kts | 0° |
| 2026-04-17 11:30 | 41.26600 | 28.72760 | 359 ft | 122 kts | 0° |
| 2026-04-17 11:30 | 41.27349 | 28.72755 | 337 ft | 92 kts | 359° |
| 2026-04-17 11:30 | 41.27847 | 28.72748 | 335 ft | 30 kts | 359° |
| 2026-04-17 11:30 | 41.27911 | 28.72749 | 337 ft | 1 kts | 1° |
| 2026-04-17 11:31 | 41.27999 | 28.72780 | 336 ft | 18 kts | 23° |
| 2026-04-17 11:31 | 41.28104 | 28.72858 | 335 ft | 14 kts | 34° |
| 2026-04-17 11:31 | 41.28110 | 28.72863 | 335 ft | 0 kts | 34° |
| 2026-04-17 11:31 | 41.28125 | 28.72893 | 352 ft | 9 kts | 71° |
| 2026-04-17 11:32 | 41.28107 | 28.72939 | 336 ft | 0 kts | 148° |
| 2026-04-17 11:32 | 41.28107 | 28.72940 | 336 ft | 1 kts | 148° |
| 2026-04-17 11:32 | 41.28089 | 28.72952 | 336 ft | 5 kts | 159° |
| 2026-04-17 11:32 | 41.28078 | 28.72955 | 334 ft | 0 kts | 167° |
| 2026-04-17 11:33 | 41.28075 | 28.72956 | 334 ft | 4 kts | 168° |
| 2026-04-17 11:33 | 41.27934 | 28.72975 | 334 ft | 22 kts | 174° |
| 2026-04-17 11:33 | 41.27874 | 28.72975 | 336 ft | 1 kts | 178° |
| 2026-04-17 11:33 | 41.27859 | 28.72975 | 334 ft | 3 kts | 179° |
| 2026-04-17 11:34 | 41.27834 | 28.72976 | 338 ft | 4 kts | 179° |
| 2026-04-17 11:34 | 41.27800 | 28.72976 | 336 ft | 6 kts | 180° |
| 2026-04-17 11:34 | 41.27755 | 28.72975 | 335 ft | 7 kts | 181° |
| 2026-04-17 11:34 | 41.27702 | 28.72974 | 337 ft | 8 kts | 180° |
| 2026-04-17 11:35 | 41.27639 | 28.72975 | 335 ft | 10 kts | 179° |
| 2026-04-17 11:35 | 41.27568 | 28.72978 | 334 ft | 11 kts | 178° |
| 2026-04-17 11:35 | 41.27487 | 28.72982 | 334 ft | 12 kts | 179° |
| 2026-04-17 11:35 | 41.27399 | 28.72981 | 334 ft | 13 kts | 180° |
| 2026-04-17 11:36 | 41.27310 | 28.72982 | 334 ft | 13 kts | 178° |
| 2026-04-17 11:36 | 41.27220 | 28.72984 | 335 ft | 13 kts | 179° |
| 2026-04-17 11:36 | 41.27131 | 28.72987 | 336 ft | 13 kts | 178° |
| 2026-04-17 11:36 | 41.27041 | 28.72991 | 336 ft | 14 kts | 179° |
| 2026-04-17 11:37 | 41.26947 | 28.72991 | 334 ft | 14 kts | 173° |
| 2026-04-17 11:37 | 41.26880 | 28.73072 | 335 ft | 14 kts | 111° |
| 2026-04-17 11:37 | 41.26870 | 28.73199 | 335 ft | 14 kts | 86° |
| 2026-04-17 11:37 | 41.26838 | 28.73314 | 335 ft | 14 kts | 147° |
| 2026-04-17 11:38 | 41.26739 | 28.73335 | 336 ft | 15 kts | 178° |
| 2026-04-17 11:38 | 41.26647 | 28.73347 | 335 ft | 12 kts | 159° |
| 2026-04-17 11:38 | 41.26610 | 28.73425 | 337 ft | 10 kts | 92° |
| 2026-04-17 11:38 | 41.26619 | 28.73461 | 333 ft | 0 kts | 64° |